Time;durP1;ratioP1;P1;durP2;ratioP2;P2;SDS_P1;SDS_P2;PMS_P1;PMS_P2;Temp;Humidity;BMP_temperature;BMP_pressure;BME280_temperature;BME280_humidity;BME280_pressure;Samples;Min_cycle;Max_cycle;Signal;HPM_P1;HPM_P2
2023/12/23 00:00:34;;;;;;;17.15;1.48;;;;;;;-146.25;100.00;52662.22;2089077;28;33446;-74
2023/12/23 00:01:37;;;;;;;11.30;0.88;;;;;;;-146.25;100.00;52690.59;2088376;28;33545;-73
2023/12/23 00:02:39;;;;;;;22.77;1.30;;;;;;;-146.25;100.00;52645.97;2088495;28;35096;-74
2023/12/23 00:03:41;;;;;;;12.02;0.77;;;;;;;-146.25;100.00;52623.69;2088799;28;34602;-73
2023/12/23 00:04:46;;;;;;;8.70;1.20;;;;;;;-146.25;100.00;52635.84;2089226;28;20045;-72
2023/12/23 00:05:47;;;;;;;14.25;1.10;;;;;;;-146.25;100.00;52631.78;2088077;28;36267;-74
2023/12/23 00:06:49;;;;;;;14.23;1.23;;;;;;;-146.25;100.00;52631.78;2089269;28;20042;-75
2023/12/23 00:07:51;;;;;;;14.50;1.10;;;;;;;-146.25;100.00;52682.47;2088568;28;37685;-74
2023/12/23 00:08:53;;;;;;;13.98;1.30;;;;;;;-146.25;100.00;52660.19;2089695;28;20145;-74
2023/12/23 00:09:55;;;;;;;13.52;0.88;;;;;;;-146.25;100.00;52645.97;2088480;28;30072;-74
2023/12/23 00:10:57;;;;;;;19.75;1.23;;;;;;;-146.25;100.00;52631.78;2088731;28;37428;-74
2023/12/23 00:11:59;;;;;;;15.63;1.10;;;;;;;-146.25;100.00;52633.81;2089330;28;20085;-75
2023/12/23 00:13:01;;;;;;;12.65;1.17;;;;;;;-146.25;100.00;52639.91;2088569;28;34499;-75
2023/12/23 00:14:03;;;;;;;18.13;1.27;;;;;;;-146.25;100.00;52658.16;2088436;28;35264;-74
2023/12/23 00:15:05;;;;;;;13.45;1.52;;;;;;;-146.25;100.00;52654.09;2089693;28;20896;-75
2023/12/23 00:16:07;;;;;;;16.42;1.10;;;;;;;-146.25;100.00;52690.59;2088660;28;36021;-74
2023/12/23 00:17:11;;;;;;;15.57;1.05;;;;;;;-146.25;100.00;52694.66;2088839;28;34371;-75
2023/12/23 00:18:13;;;;;;;14.65;1.35;;;;;;;-146.25;100.00;52617.59;2088797;28;20041;-73
2023/12/23 00:19:15;;;;;;;19.63;1.83;;;;;;;-146.25;100.00;52652.06;2087894;28;35864;-74
2023/12/23 00:20:17;;;;;;;16.63;1.35;;;;;;;-146.25;100.00;52609.50;2088406;28;38837;-73
2023/12/23 00:21:18;;;;;;;12.52;1.23;;;;;;;-146.25;100.00;52635.84;2089617;28;20045;-75
2023/12/23 00:22:20;;;;;;;13.98;1.30;;;;;;;-146.25;100.00;52684.50;2088155;28;37667;-74
2023/12/23 00:23:24;;;;;;;15.73;1.48;;;;;;;-146.25;100.00;52672.34;2088358;28;32045;-75
2023/12/23 00:24:31;;;;;;;15.68;1.05;;;;;;;-146.25;100.00;52641.94;2088386;28;30690;-73
2023/12/23 00:25:33;;;;;;;14.90;1.10;;;;;;;-146.25;100.00;52631.78;2088764;28;33075;-73
2023/12/23 00:26:34;;;;;;;14.02;1.50;;;;;;;-146.25;100.00;52623.69;2089089;28;20041;-73
2023/12/23 00:27:36;;;;;;;17.60;1.67;;;;;;;-146.25;100.00;52658.16;2088533;28;35710;-74
2023/12/23 00:28:38;;;;;;;20.05;1.63;;;;;;;-146.25;100.00;52631.78;2089048;28;21192;-74
2023/12/23 00:29:43;;;;;;;20.27;1.58;;;;;;;-146.25;100.00;52611.50;2088943;28;23413;-74
2023/12/23 00:30:44;;;;;;;17.75;1.42;;;;;;;-146.25;100.00;52654.09;2096203;28;32632;-74
2023/12/23 00:31:46;;;;;;;15.85;1.70;;;;;;;-146.25;100.00;52654.09;2087671;28;32353;-75
2023/12/23 00:32:50;;;;;;;14.32;1.50;;;;;;;-146.25;100.00;52674.38;2088662;28;20049;-74
2023/12/23 00:33:52;;;;;;;14.23;1.17;;;;;;;-146.25;100.00;52648.00;2088782;28;27081;-74
2023/12/23 00:34:56;;;;;;;14.45;1.58;;;;;;;-146.25;100.00;52645.97;2088668;28;29579;-74
2023/12/23 00:35:58;;;;;;;19.92;1.13;;;;;;;-146.25;100.00;52637.88;2089160;28;24195;-74
2023/12/23 00:36:59;;;;;;;17.05;1.42;;;;;;;-146.25;100.00;52664.22;2088421;28;26918;-74
2023/12/23 00:38:01;;;;;;;11.63;1.25;;;;;;;-146.25;100.00;52670.31;2087868;28;27859;-75
2023/12/23 00:39:04;;;;;;;16.35;1.15;;;;;;;-146.25;100.00;52676.41;2089209;28;20111;-75
2023/12/23 00:40:06;;;;;;;13.98;1.00;;;;;;;-146.25;100.00;52654.09;2087540;28;29870;-74
2023/12/23 00:41:11;;;;;;;26.45;2.03;;;;;;;-146.25;100.00;52637.88;2088291;28;29585;-74
2023/12/23 00:42:13;;;;;;;14.98;1.50;;;;;;;-146.25;100.00;52633.81;2096525;28;26245;-73
2023/12/23 00:43:15;;;;;;;12.60;1.27;;;;;;;-146.25;100.00;52674.38;2096067;28;33315;-74
2023/12/23 00:44:17;;;;;;;12.30;1.50;;;;;;;-146.25;100.00;52631.78;2088573;28;27915;-75
2023/12/23 00:45:19;;;;;;;11.38;1.20;;;;;;;-146.25;100.00;52672.34;2088776;28;26425;-74
2023/12/23 00:46:23;;;;;;;19.30;1.20;;;;;;;-146.25;100.00;52676.41;2087215;28;31557;-75
2023/12/23 00:47:25;;;;;;;15.82;1.13;;;;;;;-146.25;100.00;52668.28;2080105;28;24517;-75
2023/12/23 00:48:29;;;;;;;11.07;1.15;;;;;;;-146.25;100.00;52633.81;2088147;28;29143;-75
2023/12/23 00:49:33;;;;;;;15.60;1.02;;;;;;;-146.25;100.00;52666.25;2087939;28;33934;-75
2023/12/23 00:50:34;;;;;;;14.73;1.50;;;;;;;-146.25;100.00;52643.97;2088201;28;21803;-74
2023/12/23 00:51:38;;;;;;;16.90;1.27;;;;;;;-146.25;100.00;52656.13;2088738;28;24705;-74
2023/12/23 00:52:41;;;;;;;12.38;0.90;;;;;;;-146.25;100.00;52639.91;2089264;28;20398;-75
2023/12/23 00:53:43;;;;;;;15.52;1.13;;;;;;;-146.25;100.00;52635.84;2088459;28;29555;-75
2023/12/23 00:54:47;;;;;;;14.90;1.38;;;;;;;-146.25;100.00;52641.94;2087380;28;27609;-74
2023/12/23 00:55:52;;;;;;;16.08;1.20;;;;;;;-146.25;100.00;52633.81;2088577;28;20057;-75
2023/12/23 00:56:57;;;;;;;13.48;1.25;;;;;;;-146.25;100.00;52625.72;2088386;28;20182;-74
2023/12/23 00:57:58;;;;;;;13.93;1.40;;;;;;;-146.25;100.00;52615.56;2081005;28;20917;-73
2023/12/23 00:59:06;;;;;;;12.65;1.17;;;;;;;-146.25;100.00;52645.97;2088459;28;27669;-74
2023/12/23 01:00:09;;;;;;;20.02;1.10;;;;;;;-146.25;100.00;52662.22;2089178;28;20084;-75
2023/12/23 01:01:12;;;;;;;14.15;0.73;;;;;;;-146.25;100.00;52633.81;2089035;28;21351;-73
2023/12/23 01:02:17;;;;;;;15.50;1.00;;;;;;;-146.25;100.00;52660.19;2088600;28;26877;-74
2023/12/23 01:03:18;;;;;;;14.85;1.30;;;;;;;-146.25;100.00;52627.75;2087756;28;27797;-74
2023/12/23 01:04:23;;;;;;;14.43;1.00;;;;;;;-146.25;100.00;52652.06;2088534;28;20081;-77
2023/12/23 01:05:25;;;;;;;16.02;1.13;;;;;;;-146.25;100.00;52660.19;2088457;28;31387;-74
2023/12/23 01:06:26;;;;;;;12.68;1.08;;;;;;;-146.25;100.00;52702.75;2088670;28;22454;-75
2023/12/23 01:07:28;;;;;;;18.02;1.20;;;;;;;-146.25;100.00;52609.50;2088691;28;25951;-74
2023/12/23 01:08:30;;;;;;;14.95;1.13;;;;;;;-146.25;100.00;52670.31;2096346;28;23423;-73
2023/12/23 01:09:32;;;;;;;12.85;1.05;;;;;;;-146.25;100.00;52648.00;2096403;28;21453;-74
2023/12/23 01:10:35;;;;;;;13.75;1.15;;;;;;;-146.25;100.00;52615.56;2096211;28;20045;-73
2023/12/23 01:11:37;;;;;;;15.60;1.55;;;;;;;-146.25;100.00;52623.69;2095843;28;30279;-74
2023/12/23 01:12:39;;;;;;;17.42;1.30;;;;;;;-146.25;100.00;52623.69;2088456;28;20037;-74
2023/12/23 01:13:41;;;;;;;14.75;1.20;;;;;;;-146.25;100.00;52639.91;2096466;28;22246;-74
2023/12/23 01:14:43;;;;;;;11.20;0.68;;;;;;;-146.25;100.00;52654.09;2087806;28;23599;-74
2023/12/23 01:15:48;;;;;;;18.60;1.27;;;;;;;-146.25;100.00;52654.09;2088370;28;20096;-74
2023/12/23 01:16:52;;;;;;;15.25;1.30;;;;;;;-146.25;100.00;52660.19;2088552;28;24861;-73
2023/12/23 01:17:54;;;;;;;16.98;1.20;;;;;;;-146.25;100.00;52650.03;2087940;28;22537;-73
2023/12/23 01:18:56;;;;;;;10.63;1.00;;;;;;;-146.25;100.00;52660.19;2087781;28;29933;-74
2023/12/23 01:19:58;;;;;;;11.38;1.17;;;;;;;-146.25;100.00;52652.06;2087736;28;20037;-75
2023/12/23 01:20:59;;;;;;;9.80;1.20;;;;;;;-146.25;100.00;52635.84;2087834;28;26571;-72
2023/12/23 01:22:01;;;;;;;15.38;1.10;;;;;;;-146.25;100.00;52637.88;2089352;28;21012;-75
2023/12/23 01:23:03;;;;;;;15.15;1.00;;;;;;;-146.25;100.00;52631.78;2088538;28;28205;-74
2023/12/23 01:24:05;;;;;;;17.30;1.20;;;;;;;-146.25;100.00;52670.31;2087576;28;32739;-74
2023/12/23 01:25:11;;;;;;;17.92;1.65;;;;;;;-146.25;100.00;52676.41;2079411;28;24882;-74
2023/12/23 01:26:13;;;;;;;16.25;1.02;;;;;;;-146.25;100.00;52668.28;2079777;28;32038;-74
2023/12/23 01:27:17;;;;;;;13.55;1.45;;;;;;;-146.25;100.00;52672.34;2087892;28;27446;-73
2023/12/23 01:28:19;;;;;;;14.52;1.23;;;;;;;-146.25;100.00;52656.13;2088074;28;20045;-74
2023/12/23 01:29:21;;;;;;;16.75;1.27;;;;;;;-146.25;100.00;52666.25;2087732;28;27764;-74
2023/12/23 01:30:23;;;;;;;14.23;1.35;;;;;;;-146.25;100.00;52639.91;2088893;28;20931;-73
2023/12/23 01:31:25;;;;;;;22.83;1.58;;;;;;;-146.25;100.00;52627.75;2088715;28;23620;-75
2023/12/23 01:32:26;;;;;;;14.10;1.15;;;;;;;-146.25;100.00;52641.94;2088970;28;20029;-74
2023/12/23 01:33:28;;;;;;;16.30;1.27;;;;;;;-146.25;100.00;52652.06;2087376;28;31414;-75
2023/12/23 01:34:33;;;;;;;18.85;1.35;;;;;;;-146.25;100.00;52654.09;2088000;28;20049;-74
2023/12/23 01:35:35;;;;;;;14.48;1.33;;;;;;;-146.25;100.00;52635.84;2088335;28;26178;-74
2023/12/23 01:36:41;;;;;;;15.65;0.88;;;;;;;-146.25;100.00;52615.56;2088099;28;20048;-74
2023/12/23 01:37:43;;;;;;;11.43;0.85;;;;;;;-146.25;100.00;52684.50;2079590;28;27122;-75
2023/12/23 01:38:45;;;;;;;18.50;1.77;;;;;;;-146.25;100.00;52682.47;2088221;28;20069;-74
2023/12/23 01:39:47;;;;;;;13.65;1.40;;;;;;;-146.25;100.00;52656.13;2087503;28;27175;-74
2023/12/23 01:40:48;;;;;;;12.77;1.02;;;;;;;-146.25;100.00;52666.25;2087498;28;29230;-75
2023/12/23 01:41:52;;;;;;;13.77;1.20;;;;;;;-146.25;100.00;52660.19;2087941;28;20135;-74
2023/12/23 01:42:54;;;;;;;15.35;1.17;;;;;;;-146.25;100.00;52650.03;2095801;28;30839;-74
2023/12/23 01:43:56;;;;;;;18.00;1.20;;;;;;;-146.25;100.00;52672.34;2087850;28;29767;-75
2023/12/23 01:44:58;;;;;;;18.70;1.23;;;;;;;-146.25;100.00;52637.88;2087621;28;20056;-74
2023/12/23 01:46:00;;;;;;;14.30;1.05;;;;;;;-146.25;100.00;52633.81;2088536;28;26549;-73
2023/12/23 01:47:03;;;;;;;14.43;1.27;;;;;;;-146.25;100.00;52623.69;2088258;28;30205;-74
2023/12/23 01:48:10;;;;;;;15.38;0.93;;;;;;;-146.25;100.00;52627.75;2087764;28;25601;-74
2023/12/23 01:49:13;;;;;;;18.85;1.35;;;;;;;-146.25;100.00;52656.13;2087352;28;28080;-74
2023/12/23 01:50:17;;;;;;;20.23;1.23;;;;;;;-146.25;100.00;52672.34;2095682;28;27809;-74
2023/12/23 01:51:22;;;;;;;13.25;1.00;;;;;;;-146.25;100.00;52654.09;2087720;28;32504;-74
2023/12/23 01:52:24;;;;;;;10.75;0.90;;;;;;;-146.25;100.00;52666.25;2088321;28;20038;-73
2023/12/23 01:53:26;;;;;;;12.55;0.88;;;;;;;-146.25;100.00;52639.91;2079479;28;21786;-77
2023/12/23 01:54:29;;;;;;;13.27;1.15;;;;;;;-146.25;100.00;52652.06;2071908;28;24453;-74
2023/12/23 01:55:33;;;;;;;13.50;1.25;;;;;;;-146.25;100.00;52650.03;2080232;28;20026;-74
2023/12/23 01:56:35;;;;;;;14.40;0.90;;;;;;;-146.25;100.00;52664.22;2080108;28;20105;-73
2023/12/23 01:57:37;;;;;;;12.50;1.08;;;;;;;-146.25;100.00;52662.22;2087445;28;20069;-74
2023/12/23 01:58:41;;;;;;;15.20;0.85;;;;;;;-146.25;100.00;52676.41;2079661;28;20069;-76
2023/12/23 01:59:43;;;;;;;17.10;1.42;;;;;;;-146.25;100.00;52643.97;2071223;28;30769;-75
2023/12/23 02:00:45;;;;;;;12.23;0.70;;;;;;;-146.25;100.00;52684.50;2079103;28;33301;-74
2023/12/23 02:01:48;;;;;;;15.73;1.33;;;;;;;-146.25;100.00;52648.00;2088061;28;23040;-75
2023/12/23 02:02:50;;;;;;;10.40;0.60;;;;;;;-146.25;100.00;52607.47;2095778;28;20780;-74
2023/12/23 02:03:52;;;;;;;13.43;1.08;;;;;;;-146.25;100.00;52670.31;2095373;28;29427;-75
2023/12/23 02:04:56;;;;;;;12.90;1.25;;;;;;;-146.25;100.00;52656.13;2087817;28;20057;-74
2023/12/23 02:05:58;;;;;;;12.18;0.98;;;;;;;-146.25;100.00;52639.91;2079799;28;30267;-74
2023/12/23 02:07:00;;;;;;;14.65;0.98;;;;;;;-146.25;100.00;52635.84;2079625;28;20042;-73
2023/12/23 02:08:05;;;;;;;11.75;1.13;;;;;;;-146.25;100.00;52660.19;2087655;28;26834;-76
2023/12/23 02:09:07;;;;;;;14.88;1.25;;;;;;;-146.25;100.00;52654.09;2088177;28;22630;-74
2023/12/23 02:10:09;;;;;;;11.95;0.90;;;;;;;-146.25;100.00;52688.56;2087605;28;21036;-75
2023/12/23 02:11:28;;;;;;;12.25;1.00;;;;;;;-146.25;100.00;52684.50;2088061;28;20083;-74
2023/12/23 02:13:24;;;;;;;14.15;1.10;;;;;;;-146.25;100.00;52664.22;2082566;28;20767;-73
2023/12/23 02:14:42;;;;;;;10.07;0.70;;;;;;;-146.25;100.00;52688.56;2088738;28;20038;-74
2023/12/23 02:15:48;;;;;;;12.05;0.80;;;;;;;-146.25;100.00;52662.22;2087655;28;20076;-75
2023/12/23 02:16:52;;;;;;;16.13;1.10;;;;;;;-146.25;100.00;52601.38;2087602;28;26481;-74
2023/12/23 02:18:00;;;;;;;12.35;0.77;;;;;;;-146.25;100.00;52643.97;2096061;28;25318;-74
2023/12/23 02:19:02;;;;;;;13.15;1.02;;;;;;;-146.25;100.00;52652.06;2095162;28;24888;-75
2023/12/23 02:20:05;;;;;;;10.30;0.65;;;;;;;-146.25;100.00;52656.13;2088138;28;29313;-75
2023/12/23 02:21:07;;;;;;;13.13;0.88;;;;;;;-146.25;100.00;52672.34;2088162;28;28674;-74
2023/12/23 02:22:08;;;;;;;11.95;0.60;;;;;;;-146.25;100.00;52613.53;2088282;28;27753;-75
2023/12/23 02:23:10;;;;;;;13.80;1.02;;;;;;;-146.25;100.00;52613.53;2088694;28;20041;-74
2023/12/23 02:24:12;;;;;;;10.73;0.98;;;;;;;-146.25;100.00;52672.34;2087180;28;31949;-75
2023/12/23 02:25:14;;;;;;;13.07;1.10;;;;;;;-146.25;100.00;52635.84;2087125;28;25437;-74
2023/12/23 02:26:23;;;;;;;12.90;0.98;;;;;;;-146.25;100.00;52652.06;2080121;28;20049;-74
2023/12/23 02:27:33;;;;;;;16.92;1.10;;;;;;;-146.25;100.00;52623.69;2071119;28;30302;-77
2023/12/23 02:28:37;;;;;;;17.02;1.13;;;;;;;-146.25;100.00;52656.13;2066458;28;29462;-76
2023/12/23 02:29:41;;;;;;;11.45;0.80;;;;;;;-146.25;100.00;52652.06;2072679;28;21523;-74
2023/12/23 02:30:48;;;;;;;21.30;1.33;;;;;;;-146.25;100.00;52652.06;2080645;28;20108;-76
2023/12/23 02:31:50;;;;;;;14.75;1.13;;;;;;;-146.25;100.00;52633.81;2079801;28;20050;-75
2023/12/23 02:32:53;;;;;;;15.63;1.17;;;;;;;-146.25;100.00;52656.13;2079364;28;32496;-76
2023/12/23 02:33:56;;;;;;;10.68;0.95;;;;;;;-146.25;100.00;52668.28;2071146;28;25341;-75
2023/12/23 02:35:00;;;;;;;16.85;1.50;;;;;;;-146.25;100.00;52660.19;2071435;28;31062;-76
2023/12/23 02:36:04;;;;;;;12.15;1.10;;;;;;;-146.25;100.00;52631.78;2070929;28;20140;-75
2023/12/23 02:37:05;;;;;;;13.07;1.27;;;;;;;-146.25;100.00;52619.63;2063738;28;20886;-77
2023/12/23 02:38:08;;;;;;;11.93;1.15;;;;;;;-146.25;100.00;52631.78;2079580;28;20042;-76
2023/12/23 02:39:11;;;;;;;18.27;1.67;;;;;;;-146.25;100.00;52660.19;2080443;28;20041;-74
2023/12/23 02:40:16;;;;;;;15.70;1.60;;;;;;;-146.25;100.00;52656.13;2079774;28;20045;-76
2023/12/23 02:41:17;;;;;;;16.10;0.95;;;;;;;-146.25;100.00;52652.06;2079717;28;28494;-76
2023/12/23 02:42:19;;;;;;;17.98;1.33;;;;;;;-146.25;100.00;52603.41;2079056;28;26550;-75
2023/12/23 02:43:21;;;;;;;17.77;1.58;;;;;;;-146.25;100.00;52656.13;2079430;28;26007;-75
2023/12/23 02:44:23;;;;;;;12.80;1.10;;;;;;;-146.25;100.00;52635.84;2079228;28;20049;-75
2023/12/23 02:45:25;;;;;;;16.65;1.00;;;;;;;-146.25;100.00;52643.97;2087545;28;27069;-75
2023/12/23 02:46:28;;;;;;;13.63;1.00;;;;;;;-146.25;100.00;52623.69;2087202;28;20076;-75
2023/12/23 02:47:31;;;;;;;17.58;1.50;;;;;;;-146.25;100.00;52615.56;2087613;28;20057;-75
2023/12/23 02:48:33;;;;;;;10.70;1.10;;;;;;;-146.25;100.00;52613.53;2078893;28;26740;-75
2023/12/23 02:49:35;;;;;;;15.80;1.20;;;;;;;-146.25;100.00;52631.78;2079821;28;20155;-74
2023/12/23 02:50:37;;;;;;;15.40;1.25;;;;;;;-146.25;100.00;52635.84;2078786;28;34816;-74
2023/12/23 02:51:38;;;;;;;20.33;1.05;;;;;;;-146.25;100.00;52637.88;2079423;28;31636;-74
2023/12/23 02:52:40;;;;;;;13.25;1.58;;;;;;;-146.25;100.00;52654.09;2080371;28;20086;-74
2023/12/23 02:53:42;;;;;;;13.27;1.60;;;;;;;-146.25;100.00;52686.53;2079531;28;36669;-75
2023/12/23 02:54:44;;;;;;;18.92;1.58;;;;;;;-146.25;100.00;52609.50;2090851;28;26779;-76
2023/12/23 02:55:46;;;;;;;13.30;0.93;;;;;;;-146.25;100.00;52672.34;2095659;28;20084;-74
2023/12/23 02:56:48;;;;;;;12.43;1.30;;;;;;;-146.25;100.00;52631.78;2086617;28;28552;-74
2023/12/23 02:57:50;;;;;;;16.08;1.27;;;;;;;-146.25;100.00;52635.84;2080312;28;22834;-77
2023/12/23 02:58:54;;;;;;;19.50;1.20;;;;;;;-146.25;100.00;52639.91;2087586;28;20089;-73
2023/12/23 02:59:58;;;;;;;16.75;1.27;;;;;;;-146.25;100.00;52625.72;2079093;28;28041;-74
2023/12/23 03:01:07;;;;;;;18.30;1.20;;;;;;;-146.25;100.00;52625.72;2091741;28;30239;-74
2023/12/23 03:02:10;;;;;;;17.20;1.38;;;;;;;-146.25;100.00;52680.47;2095266;28;20075;-74
2023/12/23 03:03:12;;;;;;;17.45;1.27;;;;;;;-146.25;100.00;52615.56;2087060;28;26260;-74
2023/12/23 03:04:15;;;;;;;11.90;1.30;;;;;;;-146.25;100.00;52629.75;2088385;28;20041;-74
2023/12/23 03:05:17;;;;;;;14.63;1.10;;;;;;;-146.25;100.00;52652.06;2095621;28;25445;-75
2023/12/23 03:06:21;;;;;;;13.65;1.08;;;;;;;-146.25;100.00;52633.81;2095622;28;32755;-75
2023/12/23 03:07:25;;;;;;;18.42;1.63;;;;;;;-146.25;100.00;52631.78;2095723;28;26209;-75
2023/12/23 03:08:26;;;;;;;12.77;1.25;;;;;;;-146.25;100.00;52641.94;2103242;28;26391;-75
2023/12/23 03:09:31;;;;;;;16.88;1.25;;;;;;;-146.25;100.00;52668.28;2088601;28;33585;-75
2023/12/23 03:10:32;;;;;;;12.85;1.27;;;;;;;-146.25;100.00;52635.84;2088489;28;31685;-75
2023/12/23 03:11:36;;;;;;;13.52;1.17;;;;;;;-146.25;100.00;52648.00;2080761;28;20038;-74
2023/12/23 03:12:38;;;;;;;15.30;1.27;;;;;;;-146.25;100.00;52645.97;2088689;28;28150;-75
2023/12/23 03:13:41;;;;;;;19.77;1.42;;;;;;;-146.25;100.00;52635.84;2088731;28;20041;-75
2023/12/23 03:14:48;;;;;;;19.45;1.92;;;;;;;-146.25;100.00;52654.09;2088998;28;23023;-75
2023/12/23 03:15:49;;;;;;;17.80;1.20;;;;;;;-146.25;100.00;52633.81;2088670;28;32102;-74
2023/12/23 03:16:55;;;;;;;12.32;1.20;;;;;;;-146.25;100.00;52631.78;2089042;28;26082;-75
2023/12/23 03:17:57;;;;;;;22.45;1.27;;;;;;;-146.25;100.00;52637.88;2088959;28;33301;-75
2023/12/23 03:19:03;;;;;;;15.88;1.10;;;;;;;-146.25;100.00;52648.00;2088962;28;23322;-75
2023/12/23 03:20:06;;;;;;;11.40;0.90;;;;;;;-146.25;100.00;52648.00;2088585;28;28329;-77
2023/12/23 03:21:08;;;;;;;12.15;0.82;;;;;;;-146.25;100.00;52639.91;2089480;28;20239;-77
2023/12/23 03:22:13;;;;;;;16.95;1.10;;;;;;;-146.25;100.00;52603.41;2088776;28;23878;-77
2023/12/23 03:23:15;;;;;;;16.20;1.45;;;;;;;-146.25;100.00;52639.91;2089408;28;20103;-78
2023/12/23 03:24:19;;;;;;;12.20;1.33;;;;;;;-146.25;100.00;52654.09;2089540;28;20045;-77
2023/12/23 03:25:20;;;;;;;16.75;1.73;;;;;;;-146.25;100.00;52635.84;2088852;28;20044;-75
2023/12/23 03:26:23;;;;;;;14.38;1.38;;;;;;;-146.25;100.00;52603.41;2080681;28;20061;-75
2023/12/23 03:27:25;;;;;;;16.42;1.20;;;;;;;-146.25;100.00;52625.72;2072545;28;24237;-77
2023/12/23 03:28:29;;;;;;;14.32;0.98;;;;;;;-146.25;100.00;52603.41;2080437;28;21393;-75
2023/12/23 03:29:30;;;;;;;13.38;1.02;;;;;;;-146.25;100.00;52613.53;2081063;28;20923;-78
2023/12/23 03:30:32;;;;;;;13.00;1.52;;;;;;;-146.25;100.00;52605.44;2080771;28;24019;-78
2023/12/23 03:31:34;;;;;;;15.95;1.73;;;;;;;-146.25;100.00;52595.28;2080193;28;23466;-75
2023/12/23 03:32:36;;;;;;;17.25;1.48;;;;;;;-146.25;100.00;52652.06;2080459;28;24607;-75
2023/12/23 03:33:41;;;;;;;15.75;1.15;;;;;;;-146.25;100.00;52652.06;2080799;28;27059;-75
2023/12/23 03:34:43;;;;;;;21.10;1.67;;;;;;;-146.25;100.00;52617.59;2079767;28;30052;-78
2023/12/23 03:35:46;;;;;;;19.88;1.27;;;;;;;-146.25;100.00;52648.00;2072661;28;20194;-74
2023/12/23 03:36:51;;;;;;;19.40;1.75;;;;;;;-146.25;100.00;52654.09;2071608;28;29599;-75
2023/12/23 03:37:53;;;;;;;17.73;1.30;;;;;;;-146.25;100.00;52599.34;2080673;28;25080;-76
2023/12/23 03:38:58;;;;;;;13.15;1.08;;;;;;;-146.25;100.00;52648.00;2080887;28;32706;-76
2023/12/23 03:40:03;;;;;;;11.02;0.90;;;;;;;-146.25;100.00;52619.63;2080570;28;20933;-78
2023/12/23 03:41:05;;;;;;;13.00;1.13;;;;;;;-146.25;100.00;52639.91;2072351;28;27081;-77
2023/12/23 03:42:06;;;;;;;17.15;1.17;;;;;;;-146.25;100.00;52609.50;2080248;28;28798;-76
2023/12/23 03:43:08;;;;;;;17.63;1.48;;;;;;;-146.25;100.00;52623.69;2088336;28;28640;-76
2023/12/23 03:44:12;;;;;;;12.68;1.20;;;;;;;-146.25;100.00;52621.66;2080955;28;26207;-76
2023/12/23 03:45:17;;;;;;;12.10;1.20;;;;;;;-146.25;100.00;52666.25;2079587;28;31171;-75
2023/12/23 03:46:20;;;;;;;10.63;0.93;;;;;;;-146.25;100.00;52633.81;2080001;28;26117;-76
2023/12/23 03:47:21;;;;;;;14.50;1.13;;;;;;;-146.25;100.00;52645.97;2088207;28;25519;-75
2023/12/23 03:48:24;;;;;;;12.02;0.98;;;;;;;-146.25;100.00;52645.97;2088809;28;20811;-75
2023/12/23 03:49:26;;;;;;;14.15;0.80;;;;;;;-146.25;100.00;52615.56;2080326;28;20772;-76
2023/12/23 03:50:29;;;;;;;11.32;0.77;;;;;;;-146.25;100.00;52648.00;2079862;28;27717;-75
2023/12/23 03:51:31;;;;;;;14.38;0.93;;;;;;;-146.25;100.00;52639.91;2081412;28;20163;-76
2023/12/23 03:52:33;;;;;;;11.90;0.63;;;;;;;-146.25;100.00;52623.69;2080024;28;31434;-75
2023/12/23 03:53:35;;;;;;;9.13;0.50;;;;;;;-146.25;100.00;52609.50;2080359;28;25853;-75
2023/12/23 03:54:36;;;;;;;18.70;0.90;;;;;;;-146.25;100.00;52627.75;2082601;28;26713;-74
2023/12/23 03:55:41;;;;;;;14.85;0.80;;;;;;;-146.25;100.00;52648.00;2080568;28;20042;-75
2023/12/23 03:56:43;;;;;;;11.68;0.85;;;;;;;-146.25;100.00;52641.94;2088305;28;27557;-75
2023/12/23 03:57:45;;;;;;;10.10;0.82;;;;;;;-146.25;100.00;52627.75;2096599;28;31343;-75
2023/12/23 03:58:47;;;;;;;8.43;0.85;;;;;;;-146.25;100.00;52623.69;2089239;28;20032;-75
2023/12/23 03:59:49;;;;;;;7.30;0.90;;;;;;;-146.25;100.00;52637.88;2089846;28;20870;-76
2023/12/23 04:00:51;;;;;;;11.02;0.60;;;;;;;-146.25;100.00;52629.75;2089369;28;23182;-74
2023/12/23 04:01:53;;;;;;;15.98;0.82;;;;;;;-146.25;100.00;52639.91;2088575;28;20898;-75
2023/12/23 04:02:55;;;;;;;9.98;0.65;;;;;;;-146.25;100.00;52609.50;2080249;28;20157;-74
2023/12/23 04:03:59;;;;;;;9.77;0.50;;;;;;;-146.25;100.00;52652.06;2088550;28;20041;-75
2023/12/23 04:05:01;;;;;;;10.48;0.60;;;;;;;-146.25;100.00;52639.91;2088657;28;20139;-73
2023/12/23 04:06:03;;;;;;;7.78;0.77;;;;;;;-146.25;100.00;52623.69;2088732;28;20887;-75
2023/12/23 04:07:05;;;;;;;12.38;0.50;;;;;;;-146.25;100.00;52641.94;2088924;28;31984;-75
2023/12/23 04:08:07;;;;;;;8.18;0.40;;;;;;;-146.25;100.00;52648.00;2089081;28;20037;-75
2023/12/23 04:09:12;;;;;;;12.60;0.80;;;;;;;-146.25;100.00;52619.63;2089091;28;24417;-75
2023/12/23 04:10:14;;;;;;;8.10;0.60;;;;;;;-146.25;100.00;52654.09;2089561;28;20862;-75
2023/12/23 04:11:15;;;;;;;7.05;0.60;;;;;;;-146.25;100.00;52666.25;2088507;28;20242;-74
2023/12/23 04:12:17;;;;;;;5.72;0.50;;;;;;;-146.25;100.00;52615.56;2088771;28;20077;-74
2023/12/23 04:13:19;;;;;;;9.20;0.77;;;;;;;-146.25;100.00;52643.97;2080565;28;20093;-74
2023/12/23 04:14:21;;;;;;;9.05;0.60;;;;;;;-146.25;100.00;52615.56;2080379;28;20586;-74
2023/12/23 04:15:23;;;;;;;9.40;0.80;;;;;;;-146.25;100.00;52656.13;2096860;28;20938;-74
2023/12/23 04:16:25;;;;;;;7.97;0.77;;;;;;;-146.25;100.00;52615.56;2088599;28;20165;-74
2023/12/23 04:17:26;;;;;;;10.88;0.60;;;;;;;-146.25;100.00;52603.41;2080053;28;24469;-73
2023/12/23 04:18:28;;;;;;;9.30;0.73;;;;;;;-146.25;100.00;52627.75;2080230;28;22822;-74
2023/12/23 04:19:30;;;;;;;10.32;1.02;;;;;;;-146.25;100.00;52609.50;2088538;28;20131;-74
2023/12/23 04:20:36;;;;;;;13.80;0.75;;;;;;;-146.25;100.00;52623.69;2079971;28;20059;-75
2023/12/23 04:21:38;;;;;;;9.75;0.70;;;;;;;-146.25;100.00;52637.88;2089068;28;25037;-74
2023/12/23 04:22:44;;;;;;;9.52;0.50;;;;;;;-146.25;100.00;52631.78;2088396;28;20190;-74
2023/12/23 04:23:51;;;;;;;10.38;0.80;;;;;;;-146.25;100.00;52656.13;2080994;28;21069;-73
2023/12/23 04:24:53;;;;;;;10.20;0.65;;;;;;;-146.25;100.00;52591.25;2085321;28;23605;-75
2023/12/23 04:25:55;;;;;;;8.27;0.65;;;;;;;-146.25;100.00;52621.66;2080419;28;20145;-74
2023/12/23 04:26:57;;;;;;;13.13;0.80;;;;;;;-146.25;100.00;52654.09;2073902;28;29681;-75
2023/12/23 04:27:59;;;;;;;8.93;0.70;;;;;;;-146.25;100.00;52603.41;2080417;28;20156;-74
2023/12/23 04:29:00;;;;;;;10.38;0.63;;;;;;;-146.25;100.00;52637.88;2080455;28;20980;-75
2023/12/23 04:30:03;;;;;;;11.80;0.90;;;;;;;-146.25;100.00;52643.97;2088320;28;20046;-74
2023/12/23 04:31:06;;;;;;;9.60;0.55;;;;;;;-146.25;100.00;52637.88;2096796;28;20044;-75
2023/12/23 04:32:08;;;;;;;9.00;0.50;;;;;;;-146.25;100.00;52648.00;2088836;28;27263;-75
2023/12/23 04:33:09;;;;;;;10.90;1.23;;;;;;;-146.25;100.00;52631.78;2088185;28;26174;-75
2023/12/23 04:34:11;;;;;;;10.57;0.93;;;;;;;-146.25;100.00;52625.72;2088607;28;20041;-75
2023/12/23 04:35:14;;;;;;;10.40;0.50;;;;;;;-146.25;100.00;52609.50;2096819;28;20925;-75
2023/12/23 04:36:18;;;;;;;10.00;0.68;;;;;;;-146.25;100.00;52615.56;2088449;28;20802;-74
2023/12/23 04:37:20;;;;;;;8.23;0.52;;;;;;;-146.25;100.00;52589.22;2072201;28;20042;-76
2023/12/23 04:38:22;;;;;;;11.80;0.88;;;;;;;-146.25;100.00;52631.78;2071940;28;30054;-76
2023/12/23 04:39:24;;;;;;;10.02;0.68;;;;;;;-146.25;100.00;52623.69;2088645;28;20949;-76
2023/12/23 04:40:28;;;;;;;11.27;0.70;;;;;;;-146.25;100.00;52635.84;2088246;28;20042;-74
2023/12/23 04:41:30;;;;;;;10.45;0.95;;;;;;;-146.25;100.00;52660.19;2088794;28;20046;-75
2023/12/23 04:42:32;;;;;;;8.55;0.73;;;;;;;-146.25;100.00;52619.63;2088463;28;20025;-75
2023/12/23 04:43:34;;;;;;;15.15;1.20;;;;;;;-146.25;100.00;52617.59;2087955;28;27785;-73